Time;durP1;ratioP1;P1;durP2;ratioP2;P2;SDS_P1;SDS_P2;PMS_P1;PMS_P2;Temp;Humidity;BMP_temperature;BMP_pressure;BME280_temperature;BME280_humidity;BME280_pressure;Samples;Min_cycle;Max_cycle;Signal;HPM_P1;HPM_P2
2022/08/26 00:00:37;;;;;;;;;;;;;;;;;;6234146;22;21019;-93
2022/08/26 00:03:18;;;;;;;;;;;;;;;;;;6235197;22;19915;-93
2022/08/26 00:05:59;;;;;;;;;;;;;;;;;;6233444;22;19958;-93
2022/08/26 00:08:29;;;;;;;;;;;;;;;;;;6196576;23;20613;-94
2022/08/26 00:11:09;;;;;;;;;;;;;;;;;;6161197;23;20368;-94
2022/08/26 00:13:57;;;;;;;;;;;;;;;;;;;;;
2022/08/26 00:16:56;;;;;;;;;;;;;;;;;;6147485;23;19952;-92
2022/08/26 00:28:44;;;;;;;;;;;;;;;;;;6086637;23;19924;-95
2022/08/26 00:34:48;;;;;;;;;;;;;;;;;;6005900;23;19972;-95
2022/08/26 00:40:24;;;;;;;;;;;;;;;;;;6125179;23;19943;-94
2022/08/26 00:42:58;;;;;;;;;;;;;;;;;;6172400;23;19955;-95
2022/08/26 00:45:51;;;;;;;;;;;;;;;;;;6145424;23;19921;-94
2022/08/26 00:48:16;;;;;;;;;;;;;;;;;;6166708;23;19924;-93
2022/08/26 00:50:48;;;;;;;;;;;;;;;;;;6121489;23;19921;-96
2022/08/26 00:53:22;;;;;;;;;;;;;;;;;;6100958;23;19971;-94
2022/08/26 00:55:54;;;;;;;;;;;;;;;;;;6102395;23;19954;-94
2022/08/26 00:58:36;;;;;;;;;;;;;;;;;;6147849;23;19924;-94
2022/08/26 01:01:05;;;;;;;;;;;;;;;;;;6125009;23;19927;-94
2022/08/26 01:03:34;;;;;;;;;;;;;;;;;;6122696;23;19924;-95
2022/08/26 01:06:00;;;;;;;;;;;;;;;;;;6123334;23;20284;-94
2022/08/26 01:08:26;;;;;;;;;;;;;;;;;;6119187;23;20537;-95
2022/08/26 01:10:57;;;;;;;;;;;;;;;;;;6122580;23;19990;-94
2022/08/26 01:13:23;;;;;;;;;;;;;;;;;;6130415;23;19915;-94
2022/08/26 01:15:52;;;;;;;;;;;;;;;;;;6202457;23;19927;-95
2022/08/26 01:18:25;;;;;;;;;;;;;;;;;;6174307;23;19924;-93
2022/08/26 01:20:51;;;;;;;;;;;;;;;;;;6184545;22;19926;-93
2022/08/26 01:23:17;;;;;;;;;;;;;;;;;;6235160;22;19919;-94
2022/08/26 01:25:51;;;;;;;;;;;;;;;;;;6263223;22;20002;-93
2022/08/26 01:28:17;;;;;;;;;;;;;;;;;;6260263;22;19926;-93
2022/08/26 01:30:46;;;;;;;;;;;;;;;;;;6261406;22;19923;-93
2022/08/26 01:33:15;;;;;;;;;;;;;;;;;;6257598;22;19919;-93
2022/08/26 01:35:43;;;;;;;;;;;;;;;;;;6229937;22;19934;-93
2022/08/26 01:38:09;;;;;;;;;;;;;;;;;;6236529;22;20361;-93
2022/08/26 01:40:39;;;;;;;;;;;;;;;;;;6231671;22;20138;-92
2022/08/26 01:43:05;;;;;;;;;;;;;;;;;;6237104;22;20601;-93
2022/08/26 01:45:36;;;;;;;;;;;;;;;;;;6234337;22;19932;-93
2022/08/26 01:48:09;;;;;;;;;;;;;;;;;;6238119;22;19915;-93
2022/08/26 01:50:35;;;;;;;;;;;;;;;;;;6236664;22;20394;-93
2022/08/26 01:53:14;;;;;;;;;;;;;;;;;;6263337;22;19964;-93
2022/08/26 01:55:44;;;;;;;;;;;;;;;;;;6234648;22;19919;-93
2022/08/26 01:58:13;;;;;;;;;;;;;;;;;;6234489;22;19919;-94
2022/08/26 02:00:46;;;;;;;;;;;;;;;;;;6235950;22;20232;-92
2022/08/26 02:03:22;;;;;;;;;;;;;;;;;;6261691;22;19919;-94
2022/08/26 02:05:48;;;;;;;;;;;;;;;;;;6235215;22;20189;-94
2022/08/26 02:08:17;;;;;;;;;;;;;;;;;;6236754;22;20240;-93
2022/08/26 02:10:43;;;;;;;;;;;;;;;;;;6237376;22;19923;-93
2022/08/26 02:13:09;;;;;;;;;;;;;;;;;;6236328;22;19941;-93
2022/08/26 02:15:35;;;;;;;;;;;;;;;;;;6233579;22;19919;-93
2022/08/26 02:18:01;;;;;;;;;;;;;;;;;;6239080;22;19919;-95
2022/08/26 02:20:29;;;;;;;;;;;;;;;;;;6237262;22;19990;-95
2022/08/26 02:22:55;;;;;;;;;;;;;;;;;;6237441;22;19915;-94
2022/08/26 02:25:25;;;;;;;;;;;;;;;;;;6235892;22;20468;-95
2022/08/26 02:27:56;;;;;;;;;;;;;;;;;;6239405;22;19916;-94
2022/08/26 02:30:23;;;;;;;;;;;;;;;;;;6236081;22;19919;-96
2022/08/26 02:32:50;;;;;;;;;;;;;;;;;;6237332;22;19923;-95
2022/08/26 02:35:16;;;;;;;;;;;;;;;;;;6237821;22;19915;-95
2022/08/26 02:37:47;;;;;;;;;;;;;;;;;;6238605;22;19919;-94
2022/08/26 02:40:16;;;;;;;;;;;;;;;;;;6237945;22;20403;-93
2022/08/26 02:42:53;;;;;;;;;;;;;;;;;;6262989;22;19922;-94
2022/08/26 02:45:28;;;;;;;;;;;;;;;;;;6234866;22;20251;-94
2022/08/26 02:50:59;;;;;;;;;;;;;;;;;;6251845;22;19926;-95
2022/08/26 02:53:34;;;;;;;;;;;;;;;;;;6235768;22;20239;-93
2022/08/26 03:02:00;;;;;;;;;;;;;;;;;;6199506;23;19942;-94
2022/08/26 03:04:37;;;;;;;;;;;;;;;;;;6171237;23;19931;-95
2022/08/26 03:08:17;;;;;;;;;;;;;;;;;;;;;
2022/08/26 03:10:17;;;;;;;;;;;;;;;;;;6156103;23;19950;-94
2022/08/26 03:12:59;;;;;;;;;;;;;;;;;;;;;
2022/08/26 03:15:54;;;;;;;;;;;;;;;;;;6198636;23;20707;-95
2022/08/26 03:18:48;;;;;;;;;;;;;;;;;;;;;
2022/08/26 03:21:22;;;;;;;;;;;;;;;;;;6173203;23;19916;-94
2022/08/26 03:44:50;;;;;;;;;;;;;;;;;;6087497;23;19925;-93
2022/08/26 03:47:30;;;;;;;;;;;;;;;;;;6117759;23;20431;-94
2022/08/26 03:50:05;;;;;;;;;;;;;;;;;;6175090;23;19920;-93
2022/08/26 03:52:48;;;;;;;;;;;;;;;;;;6139386;23;19916;-93
2022/08/26 03:55:32;;;;;;;;;;;;;;;;;;6168079;23;19920;-93
2022/08/26 03:58:01;;;;;;;;;;;;;;;;;;6200047;23;19955;-83
2022/08/26 04:00:27;;;;;;;;;;;;;;;;;;6173134;23;20714;-83
2022/08/26 04:02:53;;;;;;;;;;;;;;;;;;6175120;23;19920;-83
2022/08/26 04:05:19;;;;;;;;;;;;;;;;;;6173081;23;20460;-83
2022/08/26 04:07:45;;;;;;;;;;;;;;;;;;6151400;23;19991;-83
2022/08/26 04:10:13;;;;;;;;;;;;;;;;;;6151229;23;20367;-83
2022/08/26 04:12:39;;;;;;;;;;;;;;;;;;6172810;23;19991;-83
2022/08/26 04:15:06;;;;;;;;;;;;;;;;;;6202461;23;19955;-83
2022/08/26 04:17:32;;;;;;;;;;;;;;;;;;6147456;23;19916;-83
2022/08/26 04:19:59;;;;;;;;;;;;;;;;;;6176110;23;19924;-83
2022/08/26 04:22:25;;;;;;;;;;;;;;;;;;6173732;22;20276;-83
2022/08/26 04:24:51;;;;;;;;;;;;;;;;;;6264124;22;19977;-83
2022/08/26 04:27:17;;;;;;;;;;;;;;;;;;6260531;22;19915;-83
2022/08/26 04:29:45;;;;;;;;;;;;;;;;;;6262957;22;19976;-83
2022/08/26 04:32:10;;;;;;;;;;;;;;;;;;6263169;22;19919;-84
2022/08/26 04:34:37;;;;;;;;;;;;;;;;;;6261956;22;19925;-83
2022/08/26 04:37:03;;;;;;;;;;;;;;;;;;6265156;22;19926;-83
2022/08/26 04:39:28;;;;;;;;;;;;;;;;;;6258108;22;19923;-83
2022/08/26 04:41:54;;;;;;;;;;;;;;;;;;6259041;22;19923;-83
2022/08/26 04:44:23;;;;;;;;;;;;;;;;;;6259540;22;20346;-83
2022/08/26 04:46:49;;;;;;;;;;;;;;;;;;6261798;22;19973;-83
2022/08/26 04:49:15;;;;;;;;;;;;;;;;;;6236854;22;19919;-83
2022/08/26 04:51:41;;;;;;;;;;;;;;;;;;6260793;22;19969;-83
2022/08/26 04:54:07;;;;;;;;;;;;;;;;;;6263455;22;19915;-83
2022/08/26 04:56:33;;;;;;;;;;;;;;;;;;6260296;22;19968;-83
2022/08/26 04:59:02;;;;;;;;;;;;;;;;;;6265944;22;19968;-83
2022/08/26 05:01:29;;;;;;;;;;;;;;;;;;6233104;22;19919;-83
2022/08/26 05:03:55;;;;;;;;;;;;;;;;;;6265580;22;19919;-83
2022/08/26 05:06:21;;;;;;;;;;;;;;;;;;6262254;22;19930;-83
2022/08/26 05:08:49;;;;;;;;;;;;;;;;;;6265528;22;19922;-84
2022/08/26 05:11:18;;;;;;;;;;;;;;;;;;6259850;22;19953;-83
2022/08/26 05:13:44;;;;;;;;;;;;;;;;;;6264209;22;19919;-83
2022/08/26 05:16:09;;;;;;;;;;;;;;;;;;6262377;22;19926;-83
2022/08/26 05:18:36;;;;;;;;;;;;;;;;;;6235169;22;19919;-83
2022/08/26 05:21:02;;;;;;;;;;;;;;;;;;6236629;22;19919;-83
2022/08/26 05:23:30;;;;;;;;;;;;;;;;;;6262387;22;19972;-83
2022/08/26 05:25:58;;;;;;;;;;;;;;;;;;6263704;22;20343;-83
2022/08/26 05:28:24;;;;;;;;;;;;;;;;;;6235070;22;19919;-83
2022/08/26 05:30:50;;;;;;;;;;;;;;;;;;6261840;22;19919;-82
2022/08/26 05:33:16;;;;;;;;;;;;;;;;;;6235655;22;19919;-83
2022/08/26 05:35:42;;;;;;;;;;;;;;;;;;6235910;22;19915;-83
2022/08/26 05:38:09;;;;;;;;;;;;;;;;;;6236767;22;19919;-83
2022/08/26 05:40:35;;;;;;;;;;;;;;;;;;6229673;22;20379;-83
2022/08/26 05:43:01;;;;;;;;;;;;;;;;;;6262433;22;20018;-82
2022/08/26 05:45:27;;;;;;;;;;;;;;;;;;6259098;22;19923;-83
2022/08/26 05:47:53;;;;;;;;;;;;;;;;;;6236293;22;19982;-83
2022/08/26 05:50:20;;;;;;;;;;;;;;;;;;6260286;22;20538;-83
2022/08/26 05:52:46;;;;;;;;;;;;;;;;;;6262949;22;19926;-83
2022/08/26 06:00:52;;;;;;;;;;;;;;;;;;6262122;22;19922;-84
2022/08/26 06:27:12;;;;;;;;;;;;;;;;;;6239717;22;19930;-82
2022/08/26 06:29:38;;;;;;;;;;;;;;;;;;6291349;22;19918;-82
2022/08/26 06:32:04;;;;;;;;;;;;;;;;;;6266103;22;19923;-82
2022/08/26 06:34:30;;;;;;;;;;;;;;;;;;6292501;22;20265;-82
2022/08/26 06:36:57;;;;;;;;;;;;;;;;;;6267158;22;20378;-82
2022/08/26 06:39:23;;;;;;;;;;;;;;;;;;6239143;22;19926;-82
2022/08/26 06:41:49;;;;;;;;;;;;;;;;;;6294857;22;19915;-82
2022/08/26 06:44:15;;;;;;;;;;;;;;;;;;6239869;22;20475;-82
2022/08/26 06:46:42;;;;;;;;;;;;;;;;;;6240175;22;19914;-82
2022/08/26 06:49:08;;;;;;;;;;;;;;;;;;6295774;22;19919;-82
2022/08/26 06:51:33;;;;;;;;;;;;;;;;;;6264030;22;19993;-82
2022/08/26 06:53:59;;;;;;;;;;;;;;;;;;6294284;22;19915;-82
2022/08/26 06:56:25;;;;;;;;;;;;;;;;;;6289807;22;19919;-82
2022/08/26 06:58:51;;;;;;;;;;;;;;;;;;6268938;22;20341;-82
2022/08/26 07:01:17;;;;;;;;;;;;;;;;;;6266108;22;19918;-82
2022/08/26 07:03:44;;;;;;;;;;;;;;;;;;6267942;22;19997;-82
2022/08/26 07:06:10;;;;;;;;;;;;;;;;;;6268942;22;19997;-82
2022/08/26 07:08:36;;;;;;;;;;;;;;;;;;6295258;22;19918;-82
2022/08/26 07:11:02;;;;;;;;;;;;;;;;;;6297283;22;19919;-82
2022/08/26 07:13:28;;;;;;;;;;;;;;;;;;6265796;22;19926;-82
2022/08/26 07:15:56;;;;;;;;;;;;;;;;;;6268201;22;19923;-82
2022/08/26 07:18:22;;;;;;;;;;;;;;;;;;6263429;22;20341;-82
2022/08/26 07:20:48;;;;;;;;;;;;;;;;;;6268400;22;19950;-82
2022/08/26 07:23:17;;;;;;;;;;;;;;;;;;6243339;22;20598;-82
2022/08/26 07:25:43;;;;;;;;;;;;;;;;;;6270085;22;20292;-82
2022/08/26 07:28:09;;;;;;;;;;;;;;;;;;6268532;22;19922;-83
2022/08/26 07:30:35;;;;;;;;;;;;;;;;;;6265286;22;20418;-82
2022/08/26 07:33:02;;;;;;;;;;;;;;;;;;6242242;22;20234;-82
2022/08/26 07:35:28;;;;;;;;;;;;;;;;;;6265504;22;20199;-83
2022/08/26 07:37:56;;;;;;;;;;;;;;;;;;6243018;22;19990;-82
2022/08/26 07:40:22;;;;;;;;;;;;;;;;;;6266535;22;19918;-83
2022/08/26 07:42:48;;;;;;;;;;;;;;;;;;6267741;22;19971;-82
2022/08/26 07:45:17;;;;;;;;;;;;;;;;;;6268023;22;19927;-82
2022/08/26 07:47:43;;;;;;;;;;;;;;;;;;6269105;22;19964;-82
2022/08/26 07:50:09;;;;;;;;;;;;;;;;;;6244426;22;19915;-82
2022/08/26 07:52:36;;;;;;;;;;;;;;;;;;6266979;22;20025;-82
2022/08/26 07:55:03;;;;;;;;;;;;;;;;;;6245516;22;19919;-82
2022/08/26 07:57:29;;;;;;;;;;;;;;;;;;6242500;22;20021;-82
2022/08/26 07:59:55;;;;;;;;;;;;;;;;;;6247023;22;20295;-82
2022/08/26 08:02:21;;;;;;;;;;;;;;;;;;6243875;22;19954;-82
2022/08/26 08:04:47;;;;;;;;;;;;;;;;;;6271374;22;19922;-82
2022/08/26 08:07:13;;;;;;;;;;;;;;;;;;6246058;22;19960;-82
2022/08/26 08:09:38;;;;;;;;;;;;;;;;;;6297472;22;19919;-82
2022/08/26 08:12:04;;;;;;;;;;;;;;;;;;6246384;22;19919;-82
2022/08/26 08:14:30;;;;;;;;;;;;;;;;;;6268413;22;19918;-83
2022/08/26 08:16:56;;;;;;;;;;;;;;;;;;6270322;22;20216;-83
2022/08/26 08:19:23;;;;;;;;;;;;;;;;;;6266817;22;20099;-83
2022/08/26 08:21:49;;;;;;;;;;;;;;;;;;6244156;22;20033;-83
2022/08/26 08:24:15;;;;;;;;;;;;;;;;;;6245654;22;19950;-83
2022/08/26 08:26:41;;;;;;;;;;;;;;;;;;6239073;22;19922;-83
2022/08/26 08:29:07;;;;;;;;;;;;;;;;;;6214934;22;20366;-83
2022/08/26 08:31:33;;;;;;;;;;;;;;;;;;6211071;22;19919;-82
2022/08/26 08:33:59;;;;;;;;;;;;;;;;;;6216324;22;19949;-83
2022/08/26 08:36:25;;;;;;;;;;;;;;;;;;6233482;22;19915;-83
2022/08/26 08:38:52;;;;;;;;;;;;;;;;;;6239410;22;19919;-83
2022/08/26 08:41:17;;;;;;;;;;;;;;;;;;6212937;22;19915;-83
2022/08/26 08:43:46;;;;;;;;;;;;;;;;;;6238220;22;20181;-83
2022/08/26 08:46:12;;;;;;;;;;;;;;;;;;6240335;22;19959;-83
2022/08/26 08:48:38;;;;;;;;;;;;;;;;;;6235039;22;19930;-83
2022/08/26 08:51:04;;;;;;;;;;;;;;;;;;6212869;22;20335;-83
2022/08/26 08:53:30;;;;;;;;;;;;;;;;;;6236681;22;19915;-83
2022/08/26 08:55:55;;;;;;;;;;;;;;;;;;6237614;22;19964;-83
2022/08/26 08:58:22;;;;;;;;;;;;;;;;;;6210468;22;19926;-83
2022/08/26 09:00:48;;;;;;;;;;;;;;;;;;6239053;22;20334;-83
2022/08/26 09:03:14;;;;;;;;;;;;;;;;;;6235830;22;19927;-83
2022/08/26 09:05:40;;;;;;;;;;;;;;;;;;6235193;22;20320;-83
2022/08/26 09:08:06;;;;;;;;;;;;;;;;;;6236155;22;19919;-81
2022/08/26 09:10:32;;;;;;;;;;;;;;;;;;6235159;22;19957;-83
2022/08/26 09:12:58;;;;;;;;;;;;;;;;;;6234925;22;19926;-83
2022/08/26 09:15:23;;;;;;;;;;;;;;;;;;6234898;22;19994;-83
2022/08/26 09:17:50;;;;;;;;;;;;;;;;;;6240396;22;19919;-83
2022/08/26 09:20:16;;;;;;;;;;;;;;;;;;6216474;22;19919;-83
2022/08/26 09:22:42;;;;;;;;;;;;;;;;;;6241631;22;20344;-83
2022/08/26 09:25:08;;;;;;;;;;;;;;;;;;6241260;22;19920;-83
2022/08/26 09:27:37;;;;;;;;;;;;;;;;;;6261497;22;19968;-83
2022/08/26 09:30:03;;;;;;;;;;;;;;;;;;6296145;22;19994;-83
2022/08/26 09:32:30;;;;;;;;;;;;;;;;;;6293561;22;19946;-83
2022/08/26 09:34:56;;;;;;;;;;;;;;;;;;6296378;22;20228;-83
2022/08/26 09:37:22;;;;;;;;;;;;;;;;;;6294361;22;19919;-83
2022/08/26 09:39:48;;;;;;;;;;;;;;;;;;6297277;22;19921;-83
2022/08/26 09:42:14;;;;;;;;;;;;;;;;;;6270872;22;19915;-83
2022/08/26 09:44:40;;;;;;;;;;;;;;;;;;6292418;22;20231;-83
2022/08/26 09:47:07;;;;;;;;;;;;;;;;;;6296279;22;19922;-83
2022/08/26 09:49:33;;;;;;;;;;;;;;;;;;6296305;22;20354;-84
2022/08/26 09:52:00;;;;;;;;;;;;;;;;;;6296789;22;19915;-84
2022/08/26 09:54:26;;;;;;;;;;;;;;;;;;6294142;22;20372;-83
2022/08/26 09:56:52;;;;;;;;;;;;;;;;;;6270087;22;19919;-84
2022/08/26 09:59:18;;;;;;;;;;;;;;;;;;6267848;22;19954;-83
2022/08/26 10:01:44;;;;;;;;;;;;;;;;;;6271289;22;20060;-83
2022/08/26 10:04:10;;;;;;;;;;;;;;;;;;6296275;22;19918;-83
2022/08/26 10:06:37;;;;;;;;;;;;;;;;;;6268431;22;19979;-83
2022/08/26 10:09:03;;;;;;;;;;;;;;;;;;6295213;22;19968;-83
2022/08/26 10:11:29;;;;;;;;;;;;;;;;;;6268483;22;19926;-83
2022/08/26 10:13:55;;;;;;;;;;;;;;;;;;6296463;22;20303;-83
2022/08/26 10:16:21;;;;;;;;;;;;;;;;;;6294505;22;19941;-83
2022/08/26 10:18:47;;;;;;;;;;;;;;;;;;6295943;22;19918;-83
2022/08/26 10:21:13;;;;;;;;;;;;;;;;;;6298435;22;20289;-84
2022/08/26 10:23:39;;;;;;;;;;;;;;;;;;6294070;22;19919;-84
2022/08/26 10:26:05;;;;;;;;;;;;;;;;;;6296134;22;19930;-84
2022/08/26 10:28:31;;;;;;;;;;;;;;;;;;6294041;22;19923;-84
2022/08/26 10:30:57;;;;;;;;;;;;;;;;;;6268904;22;20368;-84
2022/08/26 10:33:23;;;;;;;;;;;;;;;;;;6293330;22;19919;-84
2022/08/26 10:35:49;;;;;;;;;;;;;;;;;;6269939;22;19919;-86
2022/08/26 10:38:16;;;;;;;;;;;;;;;;;;6267509;22;20229;-87
2022/08/26 10:40:43;;;;;;;;;;;;;;;;;;6296208;22;19919;-88
2022/08/26 10:43:18;;;;;;;;;;;;;;;;;;6239631;22;19930;-88
2022/08/26 10:45:44;;;;;;;;;;;;;;;;;;6270470;22;19927;-87
2022/08/26 10:48:10;;;;;;;;;;;;;;;;;;6271556;22;19918;-87
2022/08/26 10:50:36;;;;;;;;;;;;;;;;;;6294368;22;20873;-87
2022/08/26 10:53:02;;;;;;;;;;;;;;;;;;6297337;22;19919;-87
2022/08/26 10:55:28;;;;;;;;;;;;;;;;;;6293599;22;19941;-88
2022/08/26 10:57:54;;;;;;;;;;;;;;;;;;6295379;22;19923;-87
2022/08/26 11:03:05;;;;;;;;;;;;;;;;;;6298157;22;20243;-87
2022/08/26 11:08:32;;;;;;;;;;;;;;;;;;6178071;23;19927;-87
2022/08/26 11:10:58;;;;;;;;;;;;;;;;;;6272724;22;19915;-87
2022/08/26 11:13:24;;;;;;;;;;;;;;;;;;6269030;22;19965;-86
2022/08/26 11:15:50;;;;;;;;;;;;;;;;;;6297191;22;19918;-87
2022/08/26 11:18:16;;;;;;;;;;;;;;;;;;6293259;22;19918;-87
2022/08/26 11:20:45;;;;;;;;;;;;;;;;;;6295517;22;19993;-86
2022/08/26 11:23:11;;;;;;;;;;;;;;;;;;6290788;22;20009;-87
2022/08/26 11:25:37;;;;;;;;;;;;;;;;;;6292611;22;19964;-87
2022/08/26 11:28:06;;;;;;;;;;;;;;;;;;6296884;22;19970;-86
2022/08/26 11:30:32;;;;;;;;;;;;;;;;;;6296131;22;19914;-87
2022/08/26 11:32:58;;;;;;;;;;;;;;;;;;6296717;22;19941;-86
2022/08/26 11:35:24;;;;;;;;;;;;;;;;;;6268890;22;20353;-86
2022/08/26 11:37:50;;;;;;;;;;;;;;;;;;6297680;22;19945;-87
2022/08/26 11:40:16;;;;;;;;;;;;;;;;;;6294568;22;19918;-86
2022/08/26 11:42:45;;;;;;;;;;;;;;;;;;6270900;22;19915;-86
2022/08/26 11:45:11;;;;;;;;;;;;;;;;;;6269226;22;20327;-87
2022/08/26 11:47:38;;;;;;;;;;;;;;;;;;6266949;22;19931;-87
2022/08/26 11:50:08;;;;;;;;;;;;;;;;;;6267482;22;19993;-86
2022/08/26 11:52:36;;;;;;;;;;;;;;;;;;6264994;22;19919;-86
2022/08/26 11:55:02;;;;;;;;;;;;;;;;;;6296442;22;19919;-86
2022/08/26 11:57:28;;;;;;;;;;;;;;;;;;6293491;22;19963;-87
2022/08/26 11:59:54;;;;;;;;;;;;;;;;;;6294186;22;20381;-86
2022/08/26 12:02:20;;;;;;;;;;;;;;;;;;6266587;22;20706;-87
2022/08/26 12:05:02;;;;;;;;;;;;;;;;;;6295085;22;19946;-86
2022/08/26 12:07:38;;;;;;;;;;;;;;;;;;6289132;22;19915;-86
2022/08/26 12:10:10;;;;;;;;;;;;;;;;;;6268939;22;19914;-86
2022/08/26 12:12:39;;;;;;;;;;;;;;;;;;6266913;22;20745;-87
2022/08/26 12:15:05;;;;;;;;;;;;;;;;;;6269994;22;20247;-87
2022/08/26 12:17:31;;;;;;;;;;;;;;;;;;6293344;22;19925;-86
2022/08/26 12:19:57;;;;;;;;;;;;;;;;;;6295312;22;19919;-86
2022/08/26 12:25:26;;;;;;;;;;;;;;;;;;6294068;22;19923;-86
2022/08/26 12:28:04;;;;;;;;;;;;;;;;;;6270983;22;19923;-87
2022/08/26 12:30:46;;;;;;;;;;;;;;;;;;6307533;22;19972;-86
2022/08/26 12:33:25;;;;;;;;;;;;;;;;;;6296434;22;19918;-86
2022/08/26 12:36:01;;;;;;;;;;;;;;;;;;6297006;22;19915;-86
2022/08/26 12:38:32;;;;;;;;;;;;;;;;;;6267582;22;19919;-86
2022/08/26 12:47:06;;;;;;;;;;;;;;;;;;6283105;22;19927;-86
2022/08/26 12:49:35;;;;;;;;;;;;;;;;;;6292418;22;20228;-86
2022/08/26 12:52:40;;;;;;;;;;;;;;;;;;;;;
2022/08/26 13:02:12;;;;;;;;;;;;;;;;;;6247718;22;19989;-87
2022/08/26 13:04:28;;;;;;;;;;;;;;;;;;6280811;22;19918;-86
2022/08/26 13:07:18;;;;;;;;;;;;;;;;;;6267808;22;19923;-87
2022/08/26 13:16:06;;;;;;;;;;;;;;;;;;6202816;23;20478;-86
2022/08/26 13:18:59;;;;;;;;;;;;;;;;;;6177133;23;19922;-86
2022/08/26 13:36:28;;;;;;;;;;;;;;;;;;;;;
2022/08/26 13:57:42;;;;;;;;;;;;;;;;;;6297800;22;19917;-82
2022/08/26 14:03:22;;;;;;;;;;;;;;;;;;;;;
2022/08/26 14:18:50;;;;;;;;;;;;;;;;;;;;;
2022/08/26 14:29:14;;;;;;;;;;;;;;;;;;6283443;22;20044;-85
2022/08/26 14:31:49;;;;;;;;;;;;;;;;;;6239620;22;19969;-83
2022/08/26 14:34:15;;;;;;;;;;;;;;;;;;6266278;22;19920;-81
2022/08/26 14:36:44;;;;;;;;;;;;;;;;;;6266967;22;19919;-82
2022/08/26 14:39:23;;;;;;;;;;;;;;;;;;6272474;22;19945;-85
2022/08/26 14:41:49;;;;;;;;;;;;;;;;;;6241139;22;19918;-83
2022/08/26 14:44:28;;;;;;;;;;;;;;;;;;;;;
2022/08/26 14:46:56;;;;;;;;;;;;;;;;;;6196972;23;19924;-83
2022/08/26 15:05:46;;;;;;;;;;;;;;;;;;;;;
2022/08/26 15:11:35;;;;;;;;;;;;;;;;;;5967265;23;20348;-87
2022/08/26 15:23:55;;;;;;;;;;;;;;;;;;;;;
2022/08/26 15:26:26;;;;;;;;;;;;;;;;;;6281842;22;20239;-81
2022/08/26 15:28:52;;;;;;;;;;;;;;;;;;6292846;22;19919;-82
2022/08/26 15:31:24;;;;;;;;;;;;;;;;;;6265144;22;19923;-81
2022/08/26 15:34:01;;;;;;;;;;;;;;;;;;;;;
2022/08/26 15:36:36;;;;;;;;;;;;;;;;;;6259964;22;19945;-82
2022/08/26 15:39:26;;;;;;;;;;;;;;;;;;6256789;22;19919;-82
2022/08/26 15:41:59;;;;;;;;;;;;;;;;;;6239198;22;20373;-82
2022/08/26 15:44:28;;;;;;;;;;;;;;;;;;6261377;22;20758;-83
2022/08/26 15:47:05;;;;;;;;;;;;;;;;;;6239790;22;19927;-82
2022/08/26 15:49:31;;;;;;;;;;;;;;;;;;6264297;22;19918;-82
2022/08/26 15:51:57;;;;;;;;;;;;;;;;;;6240379;22;19918;-81
2022/08/26 15:54:26;;;;;;;;;;;;;;;;;;6288846;22;20377;-81
2022/08/26 15:56:58;;;;;;;;;;;;;;;;;;6240657;22;19919;-82
2022/08/26 15:59:26;;;;;;;;;;;;;;;;;;6290908;22;19919;-81
2022/08/26 16:01:52;;;;;;;;;;;;;;;;;;6291914;22;19937;-81
2022/08/26 16:04:18;;;;;;;;;;;;;;;;;;6260367;22;19923;-82
2022/08/26 16:06:50;;;;;;;;;;;;;;;;;;6287611;22;19926;-81
2022/08/26 16:09:16;;;;;;;;;;;;;;;;;;6289166;22;19997;-81
2022/08/26 16:11:42;;;;;;;;;;;;;;;;;;6291799;22;19923;-82
2022/08/26 16:14:08;;;;;;;;;;;;;;;;;;6291680;22;20251;-81
2022/08/26 16:16:38;;;;;;;;;;;;;;;;;;6261571;22;20014;-82
2022/08/26 16:19:04;;;;;;;;;;;;;;;;;;6291001;22;19980;-82
2022/08/26 16:21:37;;;;;;;;;;;;;;;;;;6260547;22;19922;-82
2022/08/26 16:24:03;;;;;;;;;;;;;;;;;;6275511;22;19923;-82
2022/08/26 16:26:31;;;;;;;;;;;;;;;;;;6256504;22;19919;-82
2022/08/26 16:28:57;;;;;;;;;;;;;;;;;;6206810;22;20218;-82
2022/08/26 16:31:25;;;;;;;;;;;;;;;;;;6227325;22;19919;-82
2022/08/26 16:33:54;;;;;;;;;;;;;;;;;;6231603;22;19915;-82
2022/08/26 16:36:23;;;;;;;;;;;;;;;;;;6206614;22;20313;-81
2022/08/26 16:38:52;;;;;;;;;;;;;;;;;;6261886;22;20315;-82
2022/08/26 16:41:19;;;;;;;;;;;;;;;;;;6229237;22;19919;-81
2022/08/26 16:43:48;;;;;;;;;;;;;;;;;;6257425;22;19919;-82
2022/08/26 16:46:14;;;;;;;;;;;;;;;;;;6258286;22;19930;-82
2022/08/26 16:48:40;;;;;;;;;;;;;;;;;;6231245;22;19965;-81
2022/08/26 16:51:06;;;;;;;;;;;;;;;;;;6233776;22;19919;-81
2022/08/26 16:53:32;;;;;;;;;;;;;;;;;;6259440;22;20021;-80
2022/08/26 16:55:59;;;;;;;;;;;;;;;;;;6230219;22;20298;-81
2022/08/26 16:58:24;;;;;;;;;;;;;;;;;;6230908;22;19919;-82
2022/08/26 17:00:50;;;;;;;;;;;;;;;;;;6230158;22;20251;-81
2022/08/26 17:03:16;;;;;;;;;;;;;;;;;;6231676;22;19990;-81
2022/08/26 17:05:43;;;;;;;;;;;;;;;;;;6233773;22;19923;-81
2022/08/26 17:08:09;;;;;;;;;;;;;;;;;;6235367;22;20323;-81
2022/08/26 17:10:35;;;;;;;;;;;;;;;;;;6232650;22;19923;-81
2022/08/26 17:13:01;;;;;;;;;;;;;;;;;;6236605;22;20343;-81
2022/08/26 17:15:27;;;;;;;;;;;;;;;;;;6230640;22;19986;-81
2022/08/26 17:17:53;;;;;;;;;;;;;;;;;;6232036;22;19953;-81
2022/08/26 17:20:19;;;;;;;;;;;;;;;;;;6232396;22;19923;-81
2022/08/26 17:22:45;;;;;;;;;;;;;;;;;;6259406;22;20235;-81
2022/08/26 17:25:19;;;;;;;;;;;;;;;;;;6287657;22;20066;-81
2022/08/26 17:27:45;;;;;;;;;;;;;;;;;;6264528;22;19941;-81
2022/08/26 17:30:11;;;;;;;;;;;;;;;;;;6288130;22;19981;-80
2022/08/26 17:32:37;;;;;;;;;;;;;;;;;;6285221;22;19929;-81
2022/08/26 17:35:03;;;;;;;;;;;;;;;;;;6288982;22;20360;-81
2022/08/26 17:37:29;;;;;;;;;;;;;;;;;;6260236;22;19997;-81
2022/08/26 17:39:55;;;;;;;;;;;;;;;;;;6288457;22;19930;-81
2022/08/26 17:42:21;;;;;;;;;;;;;;;;;;6288333;22;19918;-81
2022/08/26 17:44:47;;;;;;;;;;;;;;;;;;6289052;22;20350;-81
2022/08/26 17:47:13;;;;;;;;;;;;;;;;;;6290692;22;20342;-81
2022/08/26 17:49:39;;;;;;;;;;;;;;;;;;6262637;22;20243;-81
2022/08/26 17:52:05;;;;;;;;;;;;;;;;;;6292084;22;19925;-81
2022/08/26 17:54:31;;;;;;;;;;;;;;;;;;6265081;22;19921;-81
2022/08/26 17:56:57;;;;;;;;;;;;;;;;;;6292415;22;19918;-81
2022/08/26 17:59:23;;;;;;;;;;;;;;;;;;6288534;22;19973;-81
2022/08/26 18:01:53;;;;;;;;;;;;;;;;;;6291731;22;19922;-81
2022/08/26 18:04:19;;;;;;;;;;;;;;;;;;6286134;22;19919;-81
2022/08/26 18:06:49;;;;;;;;;;;;;;;;;;6291679;22;19929;-81
2022/08/26 18:09:15;;;;;;;;;;;;;;;;;;6288893;22;19919;-81
2022/08/26 18:11:41;;;;;;;;;;;;;;;;;;6263203;22;19918;-81
2022/08/26 18:14:07;;;;;;;;;;;;;;;;;;6265094;22;19926;-81
2022/08/26 18:16:37;;;;;;;;;;;;;;;;;;6265037;22;19918;-81
2022/08/26 18:19:03;;;;;;;;;;;;;;;;;;6264755;22;19942;-82
2022/08/26 18:21:29;;;;;;;;;;;;;;;;;;6288977;22;20335;-81
2022/08/26 18:23:55;;;;;;;;;;;;;;;;;;6291414;22;20010;-81
2022/08/26 18:26:22;;;;;;;;;;;;;;;;;;6291628;22;19923;-81
2022/08/26 18:28:49;;;;;;;;;;;;;;;;;;6292191;22;19947;-81
2022/08/26 18:31:15;;;;;;;;;;;;;;;;;;6291149;22;19919;-81
2022/08/26 18:33:41;;;;;;;;;;;;;;;;;;6292873;22;19919;-82
2022/08/26 18:36:07;;;;;;;;;;;;;;;;;;6261107;22;19919;-81
2022/08/26 18:38:33;;;;;;;;;;;;;;;;;;6290713;22;19976;-81
2022/08/26 18:41:01;;;;;;;;;;;;;;;;;;6293058;22;19934;-81
2022/08/26 18:43:27;;;;;;;;;;;;;;;;;;6288957;22;19926;-81
2022/08/26 18:45:53;;;;;;;;;;;;;;;;;;6289668;22;19923;-82
2022/08/26 18:48:23;;;;;;;;;;;;;;;;;;6286160;22;19918;-81
2022/08/26 18:50:49;;;;;;;;;;;;;;;;;;6288047;22;19919;-81
2022/08/26 18:53:16;;;;;;;;;;;;;;;;;;6290284;22;20356;-81
2022/08/26 18:55:42;;;;;;;;;;;;;;;;;;6287682;22;19919;-81
2022/08/26 18:58:08;;;;;;;;;;;;;;;;;;6292182;22;19998;-92
2022/08/26 19:00:46;;;;;;;;;;;;;;;;;;6263577;22;20258;-93
2022/08/26 19:03:21;;;;;;;;;;;;;;;;;;6267153;22;19929;-93
2022/08/26 19:05:50;;;;;;;;;;;;;;;;;;6267241;22;20458;-94
2022/08/26 19:14:36;;;;;;;;;;;;;;;;;;6178282;23;19927;-83
2022/08/26 19:17:14;;;;;;;;;;;;;;;;;;6121989;23;20039;-83
2022/08/26 19:19:45;;;;;;;;;;;;;;;;;;6122902;23;19963;-83
2022/08/26 19:22:21;;;;;;;;;;;;;;;;;;6140193;23;19963;-86
2022/08/26 19:24:48;;;;;;;;;;;;;;;;;;6143150;23;19991;-84
2022/08/26 19:27:14;;;;;;;;;;;;;;;;;;6145392;23;19924;-83
2022/08/26 19:29:47;;;;;;;;;;;;;;;;;;6246509;22;19999;-83
2022/08/26 19:32:24;;;;;;;;;;;;;;;;;;6239221;22;20033;-83
2022/08/26 19:34:51;;;;;;;;;;;;;;;;;;6265803;22;19919;-83
2022/08/26 19:37:17;;;;;;;;;;;;;;;;;;6238850;22;20652;-83
2022/08/26 19:39:52;;;;;;;;;;;;;;;;;;6293150;22;19934;-83
2022/08/26 19:42:25;;;;;;;;;;;;;;;;;;6288238;22;19926;-83
2022/08/26 19:45:09;;;;;;;;;;;;;;;;;;6266058;22;19958;-83
2022/08/26 19:47:36;;;;;;;;;;;;;;;;;;6263279;22;19918;-83
2022/08/26 19:50:04;;;;;;;;;;;;;;;;;;6241854;22;19954;-83
2022/08/26 19:52:29;;;;;;;;;;;;;;;;;;6258034;22;19926;-84
2022/08/26 19:54:57;;;;;;;;;;;;;;;;;;6263121;22;19923;-84
2022/08/26 20:00:26;;;;;;;;;;;;;;;;;;6250503;22;20262;-84
2022/08/26 20:02:54;;;;;;;;;;;;;;;;;;6235260;22;19918;-84
2022/08/26 20:05:23;;;;;;;;;;;;;;;;;;6260140;22;20346;-83
2022/08/26 20:07:49;;;;;;;;;;;;;;;;;;6237016;22;19926;-83
2022/08/26 20:10:22;;;;;;;;;;;;;;;;;;6258944;22;20142;-84
2022/08/26 20:12:50;;;;;;;;;;;;;;;;;;6233582;22;19919;-83
2022/08/26 20:15:27;;;;;;;;;;;;;;;;;;6288402;22;20009;-83
2022/08/26 20:18:01;;;;;;;;;;;;;;;;;;6259851;22;20560;-83
2022/08/26 20:23:46;;;;;;;;;;;;;;;;;;6293762;22;19933;-83
2022/08/26 20:26:19;;;;;;;;;;;;;;;;;;6252555;22;19919;-83